Latest Coastal Weather Observations for Avalon

IDV60701

Issued at 11:25 pm EDT Friday 28 November 2014 (issued every 10 minutes, with the page automatically refreshed every 10 minutes)

About coastal observations | Map of coastal stations | Coastal observations for VIC | Marine services | Other Formats
Station Details ID: 087113 Name: AVALON AIRPORT Lat: -38.03 Lon: 144.48 Height: 10.6 m
Data from the previous 72 hours. | See also: Recent months at Avalon
Date/Time
EDT
Temp

°C
Wind Pressure Rain
since 9am
mm
Weather Cloud Vis
km
Sea
Height
m
Swell
Dir
 
Speed
knots
Gust
knots
hPa Trend Height
m
Period
s
Dir
28/11:00pm 10.5 SSE 6 7 1020.7 - 0.0 - - 10 - - - -
28/10:30pm 11.5 SSE 7 8 1021.0 - 0.0 - - 10 - - - -
28/10:00pm 11.8 SSE 7 8 1021.1 - 0.0 - - 10 - - - -
28/09:30pm 12.8 S 10 13 1020.9 - 0.0 - - 10 - - - -
28/09:00pm 13.1 S 9 12 1020.8 - 0.0 - - 10 - - - -
28/08:30pm 13.6 S 12 16 1020.5 - 0.0 - - 10 - - - -
28/08:00pm 14.5 S 13 16 1020.3 - 0.0 - - 10 - - - -
28/07:30pm 15.2 S 14 18 1020.3 - 0.0 - - 10 - - - -
28/07:00pm 16.4 S 15 19 1020.2 - 0.0 - - 10 - - - -
28/06:30pm 17.2 S 14 18 1019.9 - 0.0 - - 10 - - - -
28/06:00pm 17.7 S 14 17 1019.7 - 0.0 - - 10 - - - -
28/05:30pm 18.2 S 13 17 1019.8 - 0.0 - - 10 - - - -
28/05:00pm 18.7 S 13 17 1020.0 - 0.0 - - 10 - - - -
28/04:30pm 19.0 S 12 17 1020.1 - 0.0 - - 10 - - - -
28/04:00pm 19.0 S 14 20 1020.2 - 0.0 - - 10 - - - -
28/03:30pm 19.1 S 13 17 1020.8 - 0.0 - - 10 - - - -
28/03:00pm 20.0 SSE 11 15 1021.0 - 0.0 - - 10 - - - -
28/02:30pm 19.0 S 11 15 1021.2 - 0.0 - - 10 - - - -
28/02:00pm 19.3 S 11 17 1021.8 - 0.0 - - 10 - - - -
28/01:30pm 18.1 SE 8 14 1022.4 - 0.0 - - 10 - - - -
28/01:00pm 17.7 SE 8 13 1022.7 - 0.0 - - 10 - - - -
28/12:30pm 17.9 SE 9 13 1022.8 - 0.0 - - 10 - - - -
28/12:00pm 17.6 ESE 8 13 1023.0 - 0.0 - - 10 - - - -
28/11:30am 17.3 E 8 11 1023.1 - 0.0 - - 10 - - - -
28/11:00am 17.3 E 8 11 1023.2 - 0.0 - - 10 - - - -
28/10:30am 16.6 SE 7 12 1023.7 - 0.0 - - 10 - - - -
28/10:00am 16.3 S 5 9 1024.1 - 0.0 - Partly cloudy 10 - - - -
28/09:30am 14.9 SSE 6 8 1024.5 - 0.0 - Cloudy 10 - - - -
28/09:00am 14.8 SE 6 9 1024.6 - 0.0 - Cloudy 10 - - - -
28/08:30am 14.5 S 8 11 1024.3 - 0.0 - Cloudy 10 - - - -
28/08:00am 14.0 SSE 7 9 1024.4 - 0.0 - Cloudy 10 - - - -
28/07:30am 13.6 S 9 11 1024.2 - 0.0 - Cloudy 10 - - - -
28/07:00am 13.4 SSE 6 9 1024.0 - 0.0 - Cloudy 10 - - - -
28/06:30am 12.6 SSE 7 8 1023.7 - 0.0 - Cloudy 10 - - - -
28/06:00am 12.2 S 7 9 1023.5 - 0.0 - Mostly cloudy 10 - - - -
28/05:30am 12.0 S 7 10 1023.2 - 0.0 - Cloudy 10 - - - -
28/05:00am 12.3 S 8 9 1023.0 - 0.0 - Cloudy 10 - - - -
28/04:30am 12.8 S 9 11 1022.7 - 0.0 - Cloudy 10 - - - -
28/04:00am 12.7 S 7 11 1022.6 - 0.0 - Cloudy 10 - - - -
28/03:30am 12.7 SSE 9 11 1022.7 - 0.0 - Cloudy 10 - - - -
28/03:00am 12.3 SE 8 11 1022.7 - 0.0 - Partly cloudy 10 - - - -
28/02:30am 12.7 SSE 7 9 1022.8 - 0.0 - Cloudy 10 - - - -
28/02:00am 12.3 SSE 6 7 1023.2 - 0.0 - Cloudy 10 - - - -
28/01:30am 12.2 SE 7 8 1023.3 - 0.0 - Partly cloudy 10 - - - -
28/01:00am 12.5 SSE 6 8 1024.0 - 0.0 - Cloudy 10 - - - -
28/12:30am 12.7 SSE 6 8 1024.3 - 0.0 - Cloudy 10 - - - -
28/12:00am 12.5 SSE 7 8 1024.3 - 0.0 - Mostly cloudy 10 - - - -
 
Date/Time
EDT
Temp

°C
Wind Pressure Rain
since 9am
mm
Weather Cloud Vis
km
Sea
Height
m
Swell
Dir
 
Speed
knots
Gust
knots
hPa Trend Height
m
Period
s
Dir
27/11:30pm 12.8 SSE 7 10 1024.6 - 0.0 - Cloudy 10 - - - -
27/11:00pm 13.0 SSE 8 10 1024.9 - 0.0 - Cloudy 10 - - - -
27/10:30pm 12.7 SSE 9 12 1025.0 - 0.0 - Cloudy 10 - - - -
27/10:00pm 12.9 SSE 9 12 1025.0 - 0.0 - Cloudy 10 - - - -
27/09:30pm 12.8 SSE 10 12 1025.0 - 0.0 - Cloudy 10 - - - -
27/09:00pm 11.4 SSE 6 8 1024.9 - 0.0 - Mostly clear 10 - - - -
27/08:30pm 11.9 SSE 8 9 1024.8 - 0.0 - - 10 - - - -
27/08:00pm 13.5 S 10 14 1024.7 - 0.0 - - 10 - - - -
27/07:30pm 14.7 S 10 12 1024.8 - 0.0 - - 10 - - - -
27/07:00pm 15.4 S 11 14 1024.8 - 0.0 - - 10 - - - -
27/06:30pm 15.7 S 13 18 1024.7 - 0.0 - Partly cloudy 10 - - - -
27/06:00pm 16.1 S 13 18 1024.6 - 0.0 - - 10 - - - -
27/05:30pm 16.6 S 14 19 1024.8 - 0.0 - - 10 - - - -
27/05:00pm 17.2 S 13 18 1024.9 - 0.0 - - 10 - - - -
27/04:30pm 17.2 S 11 17 1024.8 - 0.0 - - 10 - - - -
27/04:00pm 18.1 S 12 17 1025.0 - 0.0 - - 10 - - - -
27/03:30pm 17.5 S 13 20 1025.2 - 0.0 - - 10 - - - -
27/03:00pm 18.1 S 13 21 1025.4 - 0.0 - - 10 - - - -
27/02:30pm 17.5 SSE 13 17 1025.7 - 0.0 - Partly cloudy 10 - - - -
27/02:00pm 18.1 S 14 19 1025.6 - 0.0 - Partly cloudy 10 - - - -
27/01:30pm 17.8 S 12 17 1025.7 - 0.0 - Partly cloudy 10 - - - -
27/01:00pm 17.2 SE 13 17 1025.7 - 0.0 - Partly cloudy 10 - - - -
27/12:30pm 17.3 S 11 20 1025.9 - 0.0 - Partly cloudy 10 - - - -
27/12:00pm 17.2 SSE 11 19 1026.1 - 0.0 - Mostly cloudy 10 - - - -
27/11:30am 16.5 S 11 16 1026.4 - 0.0 - Partly cloudy 10 - - - -
27/11:00am 15.9 S 11 17 1026.4 - 0.0 - Cloudy 10 - - - -
27/10:30am 15.8 SSE 10 15 1026.5 - 0.0 - Cloudy 10 - - - -
27/10:00am 15.3 S 10 14 1026.6 - 0.0 - Cloudy 10 - - - -
27/09:30am 15.7 S 11 16 1026.5 - 0.0 - Cloudy 10 - - - -
27/09:00am 14.7 S 11 14 1026.6 - 0.0 - Mostly cloudy 10 - - - -
27/08:30am 14.2 SSE 9 12 1026.4 - 0.0 - Cloudy 10 - - - -
27/08:00am 13.9 SSE 7 9 1026.2 - 0.0 - Cloudy 10 - - - -
27/07:30am 13.6 S 10 12 1026.0 - 0.0 - Cloudy 10 - - - -
27/07:00am 13.3 SSE 10 13 1025.6 - 0.0 - Cloudy 10 - - - -
27/06:30am 12.8 S 5 7 1025.4 - 0.0 - Cloudy 10 - - - -
27/06:00am 12.7 S 8 10 1025.0 - 0.0 - Cloudy 10 - - - -
27/05:30am 12.6 S 6 8 1024.7 - 0.0 - Cloudy 10 - - - -
27/05:00am 12.7 S 7 9 1024.6 - 0.0 - Cloudy 10 - - - -
27/04:30am 12.7 S 8 12 1024.4 - 0.0 - Cloudy 10 - - - -
27/04:00am 12.8 S 9 12 1024.1 - 0.0 - Cloudy 10 - - - -
27/03:30am 12.7 S 6 8 1023.9 - 0.0 - Cloudy 10 - - - -
27/03:00am 13.0 S 9 12 1024.1 - 0.0 - Cloudy 10 - - - -
27/02:30am 13.3 S 9 12 1024.1 - 0.0 - Cloudy 10 - - - -
27/02:00am 13.3 S 7 11 1024.2 - 0.0 - Cloudy 10 - - - -
27/01:30am 13.2 S 6 8 1024.3 - 0.0 - Cloudy 10 - - - -
27/01:00am 13.3 S 11 14 1024.7 - 0.0 - Cloudy 10 - - - -
27/12:30am 13.4 SSW 9 12 1024.9 - 0.0 - Cloudy 10 - - - -
27/12:00am 13.4 SSW 10 13 1025.0 - 0.0 - Mostly cloudy 10 - - - -
 
Date/Time
EDT
Temp

°C
Wind Pressure Rain
since 9am
mm
Weather Cloud Vis
km
Sea
Height
m
Swell
Dir
 
Speed
knots
Gust
knots
hPa Trend Height
m
Period
s
Dir
26/11:30pm 13.0 S 13 17 1024.8 - 0.0 - Cloudy 10 - - - -
26/11:00pm 13.7 S 16 19 1024.6 - 0.0 - Cloudy 10 - - - -
26/10:30pm 14.0 S 15 19 1024.6 - 0.0 - Cloudy 10 - - - -
26/10:00pm 14.1 SSW 13 16 1024.4 - 0.0 - Partly cloudy 10 - - - -
26/09:30pm 14.2 S 12 15 1024.1 - 0.0 - Partly cloudy 10 - - - -
26/09:00pm 14.2 S 11 14 1023.8 - 0.0 - Cloudy 10 - - - -
26/08:30pm 14.3 S 12 17 1023.7 - 0.0 - Partly cloudy 10 - - - -
26/08:00pm 14.5 S 12 16 1023.5 - 0.0 - Partly cloudy 10 - - - -
26/07:30pm 15.0 S 13 17 1023.4 - 0.0 - Partly cloudy 10 - - - -
26/07:00pm 15.0 S 14 17 1023.0 - 0.0 - Cloudy 10 - - - -
26/06:30pm 15.4 S 13 16 1022.7 - 0.0 - Cloudy 10 - - - -
26/06:00pm 15.7 S 14 19 1022.5 - 0.0 - Cloudy 10 - - - -
26/05:30pm 15.7 S 15 18 1022.4 - 0.0 - Cloudy 10 - - - -
26/05:00pm 15.7 S 14 18 1022.3 - 0.0 - Partly cloudy 10 - - - -
26/04:30pm 16.0 S 14 18 1022.2 - 0.0 - Partly cloudy 10 - - - -
26/04:00pm 15.7 S 14 17 1022.2 - 0.0 - Partly cloudy 10 - - - -
26/03:47pm 15.2 S 16 20 1022.2 - 0.0 - Partly cloudy 10 - - - -
26/03:31pm 15.3 S 15 19 1022.2 - 0.0 - Partly cloudy 10 - - - -
26/03:30pm 15.2 S 15 19 1022.2 - 0.0 - Partly cloudy 10 - - - -
26/03:00pm 15.9 S 17 21 1022.0 - 0.0 - Cloudy 10 - - - -
26/02:30pm 16.8 S 18 21 1021.8 - 0.0 - Partly cloudy 10 - - - -
26/02:00pm 17.2 S 19 23 1021.5 - 0.0 - Partly cloudy 10 - - - -
26/01:30pm 18.9 WSW 11 16 1021.3 - 0.0 - Partly cloudy 10 - - - -
26/01:00pm 19.0 SW 10 14 1021.4 - 0.0 - Partly cloudy 10 - - - -
26/12:30pm 19.0 SW 8 12 1021.3 - 0.0 - Partly cloudy 10 - - - -
26/12:00pm 18.9 WSW 9 14 1021.5 - 0.0 - Cloudy 10 - - - -
26/11:30am 17.7 W 11 18 1021.7 - 0.0 - Partly cloudy 10 - - - -
26/11:00am 17.9 W 9 15 1021.5 - 0.0 - Partly cloudy 10 - - - -
26/10:30am 17.8 W 10 12 1021.4 - 0.0 - Partly cloudy 10 - - - -
26/10:00am 17.2 W 11 16 1021.5 - 0.0 - Partly cloudy 10 - - - -
26/09:30am 15.5 W 9 14 1021.9 - 0.0 - Partly cloudy 10 - - - -
26/09:00am 14.4 W 7 10 1021.8 - 0.0 - Cloudy 10 - - - -
26/08:30am 13.5 W 8 11 1021.6 - 0.0 - Partly cloudy 10 - - - -
26/08:00am 12.3 W 5 7 1021.4 - 0.0 - Partly cloudy 10 - - - -
26/07:30am 11.4 NW 3 4 1021.2 - 0.0 - Partly cloudy 10 - - - -
26/07:00am 10.5 WNW 4 5 1021.0 - 0.0 - Partly cloudy 10 - - - -
26/06:30am 9.8 NW 5 7 1020.7 - 0.0 - - 10 - - - -
26/06:00am 9.5 NW 7 8 1020.6 - 0.0 - Cloudy 10 - - - -
26/05:30am 9.4 NW 5 7 1020.4 - 0.0 - - 10 - - - -
26/05:00am 9.3 NW 6 7 1020.3 - 0.0 - - 10 - - - -
26/04:30am 9.3 NW 6 7 1020.2 - 0.0 - - 10 - - - -
26/04:00am 9.0 NW 6 7 1020.2 - 0.0 - - 10 - - - -
26/03:30am 7.9 NNW 5 6 1020.2 - 0.0 - - 10 - - - -
26/03:00am 8.1 N 5 6 1020.3 - 0.0 - - 10 - - - -
26/02:30am 8.5 NNW 6 6 1020.5 - 0.0 - - 10 - - - -
26/02:00am 9.6 NW 6 7 1020.6 - 0.0 - - 10 - - - -
26/01:30am 8.6 NW 5 7 1020.8 - 0.0 - - 10 - - - -
26/01:00am 10.1 NW 7 8 1021.1 - 0.0 - - 10 - - - -
26/12:30am 9.3 NNW 6 7 1021.3 - 0.0 - - 10 - - - -
26/12:00am 10.0 W 6 8 1021.3 - 0.0 - - 10 - - - -
 
Date/Time
EDT
Temp

°C
Wind Pressure Rain
since 9am
mm
Weather Cloud Vis
km
Sea
Height
m
Swell
Dir
 
Speed
knots
Gust
knots
hPa Trend Height
m
Period
s
Dir
25/11:30pm 11.4 WNW 6 7 1021.6 - 0.0 - - 10 - - - -

Other Formats:

Comma delimited format used in spreadsheet applications
http://www.bom.gov.au/fwo/IDV60701/IDV60701.94854.axf

JavaScript Object Notation format (JSON) in row-major order
http://www.bom.gov.au/fwo/IDV60701/IDV60701.94854.json